Hlavní strana
METAR-TAF:

METAR-TAF

Letiště :

Ciudad de Guatemala, Guatemala

zeměpisná šířka: 14-35N, zeměpisná délka: 090-31W, výška: 1489 m

Aktuální stav počasí

Zpráva byla vytvořena před 45 minutami, v 12:00 UTC
Severoseverovýchodní vítr 10 kt
Teplota 12°C
Vlhkost vzduchu 88%
Tlak 1028 hPa
Viditelnost 10 km a více
Skoro jasno ve výšce 7000 ft

METAR: MGGT 121200Z 02010KT CAVOK 12/10 Q1028 A3036 FEW070

Čas: 06:45 (12:45 UTC)

Předpověď počasí

Zpráva byla vytvořena před 1 hodinou a 45 minutami, v 11:00 UTC
Předpověď platná od 12 v 12 UTC do 13 v 12 UTC
Severní vítr 14 kt
Viditelnost 10 km a více
Skoro jasno ve výšce 1200 ft
Změna
od 12 v 15 UTC do 12 v 17 UTC
Severoseverovýchodní vítr 14 kt
Skoro jasno ve výšce 1800 ft
Změna
od 13 v 01 UTC do 13 v 03 UTC
Severní vítr 8 kt
Skoro jasno ve výšce 1600 ft

TAF: MGGT 121100Z 1212/1312 36014KT 9999 FEW012 TX25/1220Z TN12/1212Z BECMG 1215/1217 03014KT FEW018 BECMG 1301/1303 36008KT FEW016

Stav a předpovědi počasí z více než 4 000 letišť (zprávy METAR a TAF).

Červené a žluté tečky na mapě představují dostupné meteorologické stanice.

Když kurzor umístíte na tečku, zobrazí se název stanice.

Pak kliknutím zobrazíte stav a předpověď počasí.

Chcete-li změnit mapu, kliknutím na zelené tlačítko se znaménkem +mapu přiblížíte, kliknutím na zelené tlačítko se znaménkem – mapu oddálíte a kliknutím na zelené šipky přejdete na sousední mapy.


METAR-TAF: